createdAt,value
2018-12-05T00:00:28.364Z,101020.02
2018-12-05T00:02:54.985Z,101014.21
2018-12-05T00:05:21.825Z,101020.43
2018-12-05T00:07:48.321Z,101016.36
2018-12-05T00:10:14.929Z,101016.86
2018-12-05T00:12:41.674Z,101014.75
2018-12-05T00:15:08.731Z,101018.72
2018-12-05T00:17:35.351Z,101019.19
2018-12-05T00:20:03.558Z,101023.59
2018-12-05T00:22:30.137Z,101023.33
2018-12-05T00:24:56.657Z,101025.10
2018-12-05T00:27:23.469Z,101030.59
2018-12-05T00:29:50.070Z,101027.63
2018-12-05T00:32:16.705Z,101029.22
2018-12-05T00:34:43.417Z,101024.17
2018-12-05T00:37:10.016Z,101030.22
2018-12-05T00:39:36.509Z,101038.20
2018-12-05T00:42:03.442Z,101043.81
2018-12-05T00:44:30.199Z,101036.28
2018-12-05T00:46:56.926Z,101049.41
2018-12-05T00:49:24.011Z,101049.53
2018-12-05T00:51:50.595Z,101049.63
2018-12-05T00:54:17.176Z,101054.37
2018-12-05T00:56:44.011Z,101048.97
2018-12-05T00:59:10.639Z,101058.91
2018-12-05T01:01:37.293Z,101072.38
2018-12-05T01:04:05.016Z,101068.56
2018-12-05T01:06:31.650Z,101075.44
2018-12-05T01:08:58.297Z,101080.55
2018-12-05T01:11:25.040Z,101080.72
2018-12-05T01:13:51.625Z,101083.02
2018-12-05T01:16:18.434Z,101083.23
2018-12-05T01:18:45.258Z,101093.05
2018-12-05T01:21:11.898Z,101093.14
2018-12-05T01:23:38.611Z,101094.47
2018-12-05T01:26:05.254Z,101097.25
2018-12-05T01:28:31.867Z,101098.78
2018-12-05T01:30:58.457Z,101100.11
2018-12-05T01:33:25.929Z,101105.05
2018-12-05T01:35:52.643Z,101101.22
2018-12-05T01:38:19.275Z,101103.04
2018-12-05T01:40:46.350Z,101103.11
2018-12-05T01:43:12.868Z,101097.87
2018-12-05T01:45:39.475Z,101095.86
2018-12-05T01:50:32.306Z,101097.70
2018-12-05T01:52:58.942Z,101094.73
2018-12-05T01:57:52.184Z,101097.70
2018-12-05T02:00:18.806Z,101092.47
2018-12-05T02:05:11.897Z,101092.19
2018-12-05T02:07:38.412Z,101088.14
2018-12-05T02:12:31.559Z,101089.34
2018-12-05T02:14:58.121Z,101093.06
2018-12-05T02:17:25.030Z,101091.48
2018-12-05T02:19:51.558Z,101096.74
2018-12-05T02:22:18.157Z,101096.92
2018-12-05T02:27:10.943Z,101098.33
2018-12-05T02:29:43.767Z,101104.34
2018-12-05T02:32:10.619Z,101104.03
2018-12-05T02:34:37.230Z,101106.17
2018-12-05T02:37:03.863Z,101106.37
2018-12-05T02:39:30.663Z,101101.48
2018-12-05T02:41:57.281Z,101099.69
2018-12-05T02:44:23.857Z,101096.09
2018-12-05T02:46:50.716Z,101098.94
2018-12-05T02:49:17.310Z,101100.50
2018-12-05T02:51:43.910Z,101107.31
2018-12-05T02:56:37.022Z,101107.55
2018-12-05T02:59:03.749Z,101110.50
2018-12-05T03:03:57.171Z,101107.59
2018-12-05T03:06:23.936Z,101110.12
2018-12-05T03:11:17.637Z,101117.34
2018-12-05T03:13:44.258Z,101118.77
2018-12-05T03:16:11.015Z,101113.12
2018-12-05T03:18:37.507Z,101114.34
2018-12-05T03:21:04.115Z,101121.75
2018-12-05T03:25:58.233Z,101125.55
2018-12-05T03:28:24.819Z,101127.77
2018-12-05T03:33:17.940Z,101140.22
2018-12-05T03:35:44.664Z,101141.09
2018-12-05T03:38:12.394Z,101133.41
2018-12-05T03:40:39.015Z,101137.50
2018-12-05T03:43:05.732Z,101137.94
2018-12-05T03:45:32.805Z,101135.49
2018-12-05T03:47:59.427Z,101132.74
2018-12-05T03:50:26.168Z,101128.19
2018-12-05T03:52:52.938Z,101123.97
2018-12-05T03:55:22.472Z,101130.13
2018-12-05T03:57:49.079Z,101129.73
2018-12-05T04:02:42.082Z,101134.81
2018-12-05T04:05:08.701Z,101131.98
2018-12-05T04:10:03.359Z,101142.98
2018-12-05T04:12:30.620Z,101147.86
2018-12-05T04:14:57.680Z,101149.26
2018-12-05T04:17:24.228Z,101151.25
2018-12-05T04:19:50.779Z,101161.00
2018-12-05T04:24:43.816Z,101161.61
2018-12-05T04:27:10.369Z,101159.66
2018-12-05T04:32:03.424Z,101159.41
2018-12-05T04:34:29.948Z,101162.81
2018-12-05T04:36:57.054Z,101163.00
2018-12-05T04:39:23.715Z,101153.17
2018-12-05T04:41:50.212Z,101151.49
2018-12-05T04:46:43.181Z,101158.90
2018-12-05T04:49:09.682Z,101159.25
2018-12-05T04:51:36.492Z,101162.96
2018-12-05T04:54:03.506Z,101163.86
2018-12-05T04:56:30.059Z,101161.41
2018-12-05T05:01:23.440Z,101167.91
2018-12-05T05:03:50.077Z,101167.86
2018-12-05T05:06:16.862Z,101170.64
2018-12-05T05:08:43.403Z,101174.50
2018-12-05T05:11:10.183Z,101176.20
2018-12-05T05:16:03.166Z,101178.09
2018-12-05T05:18:29.694Z,101186.28
2018-12-05T05:23:23.148Z,101193.22
2018-12-05T05:25:49.795Z,101192.49
2018-12-05T05:30:42.775Z,101195.05
2018-12-05T05:33:09.506Z,101201.05
2018-12-05T05:35:36.379Z,101198.16
2018-12-05T05:38:02.995Z,101202.22
2018-12-05T05:40:29.566Z,101203.66
2018-12-05T05:42:56.308Z,101205.05
2018-12-05T05:45:22.922Z,101203.86
2018-12-05T05:47:49.608Z,101200.97
2018-12-05T05:52:42.670Z,101206.43
2018-12-05T05:55:09.158Z,101202.02
2018-12-05T05:57:36.825Z,101206.41
2018-12-05T06:00:04.343Z,101210.56
2018-12-05T06:02:30.941Z,101203.48
2018-12-05T06:04:57.640Z,101208.42
2018-12-05T06:07:24.243Z,101206.71
2018-12-05T06:09:50.750Z,101205.86
2018-12-05T06:12:17.695Z,101209.02
2018-12-05T06:14:44.218Z,101209.23
2018-12-05T06:17:10.790Z,101210.37
2018-12-05T06:19:37.924Z,101211.83
2018-12-05T06:22:04.510Z,101215.28
2018-12-05T06:24:31.278Z,101210.84
2018-12-05T06:26:57.968Z,101222.16
2018-12-05T06:29:24.466Z,101216.58
2018-12-05T06:31:51.065Z,101224.02
2018-12-05T06:34:17.893Z,101232.73
2018-12-05T06:36:44.572Z,101230.09
2018-12-05T06:39:11.447Z,101233.39
2018-12-05T06:44:04.665Z,101229.16
2018-12-05T06:46:31.185Z,101233.87
2018-12-05T06:48:58.054Z,101234.37
2018-12-05T06:51:24.700Z,101239.72
2018-12-05T06:53:51.294Z,101241.59
2018-12-05T06:56:18.504Z,101249.68
2018-12-05T06:58:45.100Z,101250.44
2018-12-05T07:01:12.404Z,101253.00
2018-12-05T07:06:05.688Z,101248.06
2018-12-05T07:08:32.266Z,101249.06
2018-12-05T07:13:25.488Z,101251.50
2018-12-05T07:15:51.991Z,101249.43
2018-12-05T07:18:18.875Z,101248.27
2018-12-05T07:20:45.470Z,101252.62
2018-12-05T07:23:12.098Z,101260.37
2018-12-05T07:25:39.157Z,101266.55
2018-12-05T07:28:05.784Z,101274.41
2018-12-05T07:30:32.314Z,101282.62
2018-12-05T07:35:25.351Z,101296.66
2018-12-05T07:37:51.943Z,101300.77
2018-12-05T07:40:19.012Z,101302.31
2018-12-05T07:42:45.691Z,101304.17
2018-12-05T07:45:12.290Z,101304.70
2018-12-05T07:47:39.208Z,101308.86
2018-12-05T07:50:05.826Z,101315.36
2018-12-05T07:52:32.463Z,101320.75
2018-12-05T07:57:25.367Z,101325.14
2018-12-05T07:59:51.983Z,101325.98
2018-12-05T08:04:45.778Z,101320.23
2018-12-05T08:07:12.391Z,101316.04
2018-12-05T08:09:39.994Z,101325.00
2018-12-05T08:12:06.715Z,101321.14
2018-12-05T08:14:33.476Z,101324.47
2018-12-05T08:17:00.392Z,101317.48
2018-12-05T08:19:26.981Z,101319.44
2018-12-05T08:21:53.590Z,101317.72
2018-12-05T08:24:20.534Z,101318.36
2018-12-05T08:26:47.295Z,101320.00
2018-12-05T08:29:13.902Z,101318.37
2018-12-05T08:31:40.917Z,101311.86
2018-12-05T08:34:07.494Z,101316.90
2018-12-05T08:36:34.092Z,101325.59
2018-12-05T08:39:01.549Z,101324.92
2018-12-05T08:41:28.043Z,101325.97
2018-12-05T08:43:54.674Z,101324.48
2018-12-05T08:48:47.697Z,101323.99
2018-12-05T08:51:14.211Z,101325.63
2018-12-05T08:56:07.338Z,101337.16
2018-12-05T08:58:33.940Z,101341.44
2018-12-05T09:01:00.952Z,101343.45
2018-12-05T09:03:27.547Z,101341.22
2018-12-05T09:05:54.159Z,101344.36
2018-12-05T09:10:47.198Z,101346.10
2018-12-05T09:13:13.923Z,101343.92
2018-12-05T09:18:07.048Z,101338.55
2018-12-05T09:20:33.759Z,101338.59
2018-12-05T09:25:26.918Z,101333.42
2018-12-05T09:27:54.211Z,101334.64
2018-12-05T09:32:47.116Z,101326.02
2018-12-05T09:35:13.755Z,101324.86
2018-12-05T09:37:40.630Z,101316.84
2018-12-05T09:40:07.391Z,101314.08
2018-12-05T09:42:34.050Z,101310.53
2018-12-05T09:45:01.043Z,101305.46
2018-12-05T09:47:27.633Z,101304.71
2018-12-05T09:49:54.199Z,101296.45
2018-12-05T09:52:21.181Z,101294.05
2018-12-05T09:54:48.172Z,101293.08
2018-12-05T09:57:14.851Z,101291.45
2018-12-05T09:59:41.651Z,101292.23
2018-12-05T10:02:08.213Z,101292.11
2018-12-05T10:04:34.813Z,101285.53
2018-12-05T10:07:01.774Z,101279.84
2018-12-05T10:09:28.442Z,101275.38
2018-12-05T10:11:55.090Z,101276.12
2018-12-05T10:14:21.723Z,101273.55
2018-12-05T10:16:48.800Z,101265.33
2018-12-05T10:19:15.519Z,101274.14
2018-12-05T10:21:42.563Z,101270.66
2018-12-05T10:24:09.294Z,101274.69
2018-12-05T10:26:36.077Z,101268.48
2018-12-05T10:29:03.507Z,101268.77
2018-12-05T10:31:30.146Z,101267.05
2018-12-05T10:33:56.787Z,101266.48
2018-12-05T10:36:24.328Z,101261.25
2018-12-05T10:38:51.036Z,101254.86
2018-12-05T10:41:17.584Z,101249.23
2018-12-05T10:43:44.512Z,101239.09
2018-12-05T10:46:11.187Z,101233.65
2018-12-05T10:48:37.873Z,101230.06
2018-12-05T10:51:04.777Z,101230.91
2018-12-05T10:53:31.455Z,101234.75
2018-12-05T10:55:58.094Z,101229.23
2018-12-05T10:58:25.079Z,101220.80
2018-12-05T11:00:57.823Z,101219.17
2018-12-05T11:03:30.090Z,101210.89
2018-12-05T11:06:02.306Z,101204.19
2018-12-05T11:08:34.819Z,101197.00
2018-12-05T11:11:07.324Z,101192.83
2018-12-05T11:13:40.448Z,101190.33
2018-12-05T11:16:09.701Z,101189.05
2018-12-05T11:18:42.401Z,101180.04
2018-12-05T11:21:14.852Z,101182.02
2018-12-05T11:23:59.359Z,101182.64
2018-12-05T11:26:26.716Z,101179.87
2018-12-05T11:28:52.988Z,101184.77
2018-12-05T11:31:19.852Z,101173.64
2018-12-05T11:33:46.105Z,101176.00
2018-12-05T11:36:12.512Z,101175.45
2018-12-05T11:38:39.237Z,101164.09
2018-12-05T11:41:05.523Z,101158.52
2018-12-05T11:43:31.691Z,101156.15
2018-12-05T11:45:58.623Z,101158.78
2018-12-05T11:48:24.915Z,101156.06
2018-12-05T11:50:51.182Z,101154.99
2018-12-05T11:53:17.748Z,101146.63
2018-12-05T11:55:44.045Z,101148.57
2018-12-05T11:58:10.377Z,101139.20
2018-12-05T12:00:36.974Z,101138.46
2018-12-05T12:03:03.347Z,101141.77
2018-12-05T12:05:29.665Z,101142.12
2018-12-05T12:07:56.006Z,101137.41
2018-12-05T12:10:24.308Z,101135.77
2018-12-05T12:12:56.928Z,101134.09
2018-12-05T12:15:23.203Z,101137.01
2018-12-05T12:17:49.504Z,101139.66
2018-12-05T12:20:16.172Z,101136.16
2018-12-05T12:22:42.364Z,101128.86
2018-12-05T12:25:08.632Z,101127.19
2018-12-05T12:27:35.193Z,101127.77
2018-12-05T12:30:01.399Z,101128.42
2018-12-05T12:32:27.857Z,101125.59
2018-12-05T12:34:54.287Z,101129.48
2018-12-05T12:37:20.515Z,101123.12
2018-12-05T12:39:46.704Z,101118.81
2018-12-05T12:42:13.396Z,101117.81
2018-12-05T12:44:39.684Z,101112.61
2018-12-05T12:47:05.928Z,101107.56
2018-12-05T12:49:32.337Z,101103.11
2018-12-05T12:51:58.604Z,101103.82
2018-12-05T12:54:24.787Z,101105.76
2018-12-05T12:56:51.539Z,101109.06
2018-12-05T12:59:17.634Z,101111.00
2018-12-05T13:01:43.909Z,101107.73
2018-12-05T13:04:10.459Z,101101.95
2018-12-05T13:06:36.712Z,101093.94
2018-12-05T13:09:05.700Z,101088.14
2018-12-05T13:11:32.208Z,101087.31
2018-12-05T13:13:58.563Z,101090.39
2018-12-05T13:16:24.975Z,101085.67
2018-12-05T13:18:51.294Z,101088.02
2018-12-05T13:21:17.609Z,101080.40
2018-12-05T13:23:43.852Z,101087.52
2018-12-05T13:26:10.491Z,101077.40
2018-12-05T13:28:36.811Z,101074.41
2018-12-05T13:31:03.308Z,101068.62
2018-12-05T13:33:30.074Z,101063.09
2018-12-05T13:35:56.336Z,101066.63
2018-12-05T13:38:22.682Z,101067.59
2018-12-05T13:40:49.319Z,101060.41
2018-12-05T13:43:15.511Z,101063.40
2018-12-05T13:45:41.722Z,101061.48
2018-12-05T13:48:08.300Z,101060.34
2018-12-05T13:50:34.504Z,101058.15
2018-12-05T13:53:00.744Z,101056.55
2018-12-05T13:55:27.303Z,101065.55
2018-12-05T13:57:53.507Z,101060.55
2018-12-05T14:00:19.875Z,101059.58
2018-12-05T14:02:46.413Z,101058.07
2018-12-05T14:05:12.685Z,101054.84
2018-12-05T14:07:39.328Z,101056.85
2018-12-05T14:10:06.443Z,101059.47
2018-12-05T14:12:38.096Z,101059.91
2018-12-05T14:15:05.295Z,101061.83
2018-12-05T14:17:32.049Z,101060.42
2018-12-05T14:19:58.797Z,101052.22
2018-12-05T14:22:25.400Z,101049.47
2018-12-05T14:24:52.780Z,101043.89
2018-12-05T14:27:19.275Z,101036.75
2018-12-05T14:29:45.776Z,101034.78
2018-12-05T14:32:12.723Z,101036.72
2018-12-05T14:34:39.617Z,101041.91
2018-12-05T14:37:06.157Z,101038.84
2018-12-05T14:39:32.940Z,101047.98
2018-12-05T14:41:59.849Z,101049.28
2018-12-05T14:44:26.440Z,101051.77
2018-12-05T14:46:53.404Z,101051.39
2018-12-05T14:49:20.009Z,101054.45
2018-12-05T14:51:46.726Z,101055.95
2018-12-05T14:54:13.886Z,101048.05
2018-12-05T14:56:40.718Z,101053.23
2018-12-05T14:59:07.304Z,101045.45
2018-12-05T15:01:34.071Z,101046.70
2018-12-05T15:04:00.915Z,101053.20
2018-12-05T15:06:27.427Z,101057.09
2018-12-05T15:08:54.290Z,101055.23
2018-12-05T15:11:20.834Z,101051.14
2018-12-05T15:13:47.439Z,101051.39
2018-12-05T15:16:14.343Z,101051.33
2018-12-05T15:18:41.022Z,101045.91
2018-12-05T15:21:07.662Z,101048.30
2018-12-05T15:23:34.570Z,101048.11
2018-12-05T15:26:03.363Z,101053.00
2018-12-05T15:28:29.979Z,101044.48
2018-12-05T15:30:56.508Z,101038.13
2018-12-05T15:33:23.103Z,101040.80
2018-12-05T15:35:50.055Z,101036.23
2018-12-05T15:38:17.495Z,101029.76
2018-12-05T15:40:44.131Z,101025.88
2018-12-05T15:43:10.726Z,101017.47
2018-12-05T15:45:37.439Z,101019.89
2018-12-05T15:48:04.115Z,101014.92
2018-12-05T15:50:30.801Z,101009.80
2018-12-05T15:52:57.678Z,101005.73
2018-12-05T15:55:24.274Z,101007.08
2018-12-05T15:57:51.788Z,101004.77
2018-12-05T16:00:19.011Z,101005.98
2018-12-05T16:02:45.702Z,101009.34
2018-12-05T16:05:12.300Z,101005.91
2018-12-05T16:07:38.838Z,101004.40
2018-12-05T16:10:05.753Z,101000.16
2018-12-05T16:12:32.274Z,100991.73
2018-12-05T16:14:59.117Z,100993.95
2018-12-05T16:17:25.748Z,100989.08
2018-12-05T16:19:52.367Z,100983.90
2018-12-05T16:22:19.021Z,100982.11
2018-12-05T16:24:45.639Z,100981.28
2018-12-05T16:27:12.148Z,100982.75
2018-12-05T16:29:38.980Z,100982.03
2018-12-05T16:32:05.562Z,100981.05
2018-12-05T16:34:32.162Z,100971.86
2018-12-05T16:36:59.218Z,100971.95
2018-12-05T16:39:25.727Z,100972.45
2018-12-05T16:41:52.206Z,100972.52
2018-12-05T16:44:19.110Z,100964.23
2018-12-05T16:46:45.746Z,100965.66
2018-12-05T16:49:12.464Z,100959.80
2018-12-05T16:51:39.404Z,100964.09
2018-12-05T16:54:06.422Z,100967.98
2018-12-05T16:56:33.000Z,100962.87
2018-12-05T16:58:59.942Z,100963.06
2018-12-05T17:01:26.498Z,100966.27
2018-12-05T17:03:53.106Z,100964.77
2018-12-05T17:06:20.080Z,100962.27
2018-12-05T17:08:46.684Z,100964.77
2018-12-05T17:11:13.212Z,100969.09
2018-12-05T17:13:41.234Z,100970.28
2018-12-05T17:16:07.934Z,100966.38
2018-12-05T17:18:34.550Z,100963.45
2018-12-05T17:21:01.366Z,100965.15
2018-12-05T17:23:28.892Z,100962.73
2018-12-05T17:25:55.558Z,100960.65
2018-12-05T17:28:22.661Z,100961.88
2018-12-05T17:30:49.188Z,100964.80
2018-12-05T17:33:28.114Z,100960.08
2018-12-05T17:35:54.768Z,100956.45
2018-12-05T17:38:21.519Z,100950.61
2018-12-05T17:40:48.336Z,100953.52
2018-12-05T17:43:16.014Z,100960.96
2018-12-05T17:45:43.131Z,100956.38
2018-12-05T17:48:09.905Z,100950.00
2018-12-05T17:50:36.490Z,100946.77
2018-12-05T17:53:03.308Z,100941.34
2018-12-05T17:55:30.149Z,100947.00
2018-12-05T17:57:56.776Z,100941.93
2018-12-05T18:00:23.500Z,100946.20
2018-12-05T18:02:50.287Z,100936.60
2018-12-05T18:05:16.888Z,100934.21
2018-12-05T18:07:43.372Z,100930.47
2018-12-05T18:10:10.150Z,100935.88
2018-12-05T18:12:36.834Z,100937.64
2018-12-05T18:15:03.537Z,100930.63
2018-12-05T18:17:30.564Z,100930.34
2018-12-05T18:19:57.205Z,100916.58
2018-12-05T18:22:23.881Z,100915.73
2018-12-05T18:24:50.835Z,100915.82
2018-12-05T18:27:17.541Z,100910.75
2018-12-05T18:29:44.102Z,100913.98
2018-12-05T18:32:11.046Z,100911.30
2018-12-05T18:34:37.681Z,100910.06
2018-12-05T18:37:04.288Z,100905.33
2018-12-05T18:39:32.001Z,100906.38
2018-12-05T18:41:58.651Z,100909.79
2018-12-05T18:44:25.352Z,100904.39
2018-12-05T18:46:52.266Z,100907.12
2018-12-05T18:49:18.966Z,100900.38
2018-12-05T18:51:45.504Z,100898.89
2018-12-05T18:54:12.421Z,100889.33
2018-12-05T18:56:39.115Z,100887.80
2018-12-05T18:59:05.751Z,100890.58
2018-12-05T19:01:32.733Z,100883.41
2018-12-05T19:03:59.375Z,100880.16
2018-12-05T19:06:26.021Z,100889.05
2018-12-05T19:08:52.800Z,100882.91
2018-12-05T19:11:19.498Z,100888.59
2018-12-05T19:13:52.221Z,100885.77
2018-12-05T19:16:18.958Z,100886.51
2018-12-05T19:18:45.494Z,100881.50
2018-12-05T19:21:12.291Z,100876.36
2018-12-05T19:23:39.019Z,100876.61
2018-12-05T19:26:05.679Z,100871.94
2018-12-05T19:28:32.376Z,100873.08
2018-12-05T19:30:59.391Z,100868.40
2018-12-05T19:33:25.927Z,100868.05
2018-12-05T19:35:52.468Z,100861.68
2018-12-05T19:38:19.439Z,100855.13
2018-12-05T19:40:46.079Z,100853.31
2018-12-05T19:43:12.633Z,100853.39
2018-12-05T19:45:39.474Z,100857.14
2018-12-05T19:48:06.116Z,100858.91
2018-12-05T19:50:32.773Z,100856.61
2018-12-05T19:52:59.577Z,100853.05
2018-12-05T19:55:26.286Z,100851.55
2018-12-05T19:57:52.945Z,100856.00
2018-12-05T20:00:19.804Z,100854.13
2018-12-05T20:02:46.471Z,100852.38
2018-12-05T20:05:13.087Z,100850.77
2018-12-05T20:07:39.975Z,100848.14
2018-12-05T20:10:06.730Z,100844.88
2018-12-05T20:12:33.405Z,100839.41
2018-12-05T20:15:00.225Z,100838.27
2018-12-05T20:17:26.955Z,100834.66
2018-12-05T20:19:53.613Z,100835.34
2018-12-05T20:22:20.559Z,100827.37
2018-12-05T20:24:47.175Z,100823.36
2018-12-05T20:27:13.732Z,100820.27
2018-12-05T20:29:40.697Z,100810.86
2018-12-05T20:32:07.362Z,100809.11
2018-12-05T20:34:34.167Z,100808.09
2018-12-05T20:37:01.614Z,100809.77
2018-12-05T20:39:28.363Z,100800.25
2018-12-05T20:41:58.539Z,100796.31
2018-12-05T20:44:25.362Z,100788.12
2018-12-05T20:46:51.996Z,100789.81
2018-12-05T20:49:18.558Z,100776.87
2018-12-05T20:51:45.307Z,100774.83
2018-12-05T20:54:12.575Z,100770.23
2018-12-05T20:56:39.221Z,100768.04
2018-12-05T20:59:06.268Z,100766.16
2018-12-05T21:01:32.974Z,100761.08
2018-12-05T21:03:59.547Z,100757.23
2018-12-05T21:06:26.495Z,100741.87
2018-12-05T21:08:53.376Z,100739.78
2018-12-05T21:11:20.835Z,100735.45
2018-12-05T21:13:47.755Z,100737.77
2018-12-05T21:16:14.414Z,100740.62
2018-12-05T21:18:41.055Z,100742.17
2018-12-05T21:21:07.910Z,100741.48
2018-12-05T21:23:34.575Z,100742.98
2018-12-05T21:26:12.819Z,100741.41
2018-12-05T21:28:39.380Z,100726.39
2018-12-05T21:31:06.660Z,100726.55
2018-12-05T21:33:33.435Z,100715.11
2018-12-05T21:36:26.697Z,100710.33
2018-12-05T21:38:53.604Z,100721.87
2018-12-05T21:41:20.176Z,100698.28
2018-12-05T21:43:46.819Z,100698.45
2018-12-05T21:46:13.882Z,100686.91
2018-12-05T21:48:40.445Z,100694.53
2018-12-05T21:51:07.078Z,100691.05
2018-12-05T21:53:33.894Z,100689.75
2018-12-05T21:56:00.924Z,100689.23
2018-12-05T21:58:27.504Z,100685.23
2018-12-05T22:00:54.337Z,100687.60
2018-12-05T22:03:21.103Z,100676.14
2018-12-05T22:05:47.965Z,100681.02
2018-12-05T22:08:14.879Z,100676.70
2018-12-05T22:10:41.866Z,100667.72
2018-12-05T22:13:08.445Z,100665.43
2018-12-05T22:15:35.717Z,100658.00
2018-12-05T22:18:02.425Z,100668.63
2018-12-05T22:20:29.800Z,100656.06
2018-12-05T22:22:57.530Z,100654.83
2018-12-05T22:25:24.482Z,100654.31
2018-12-05T22:27:51.172Z,100644.19
2018-12-05T22:30:18.030Z,100634.66
2018-12-05T22:32:44.657Z,100638.64
2018-12-05T22:35:11.293Z,100628.95
2018-12-05T22:37:39.174Z,100622.17
2018-12-05T22:40:07.161Z,100627.20
2018-12-05T22:42:33.837Z,100626.45
2018-12-05T22:45:00.667Z,100619.56
2018-12-05T22:47:27.362Z,100621.56
2018-12-05T22:49:54.019Z,100615.81
2018-12-05T22:52:20.803Z,100613.10
2018-12-05T22:54:47.471Z,100606.52
2018-12-05T22:57:14.483Z,100597.70
2018-12-05T22:59:41.343Z,100590.64
2018-12-05T23:02:08.031Z,100578.56
2018-12-05T23:04:34.793Z,100578.95
2018-12-05T23:07:01.699Z,100576.44
2018-12-05T23:09:28.434Z,100575.00
2018-12-05T23:11:55.101Z,100567.73
2018-12-05T23:14:22.073Z,100563.05
2018-12-05T23:16:48.777Z,100557.01
2018-12-05T23:19:15.558Z,100551.47
2018-12-05T23:21:42.393Z,100544.97
2018-12-05T23:24:09.063Z,100537.76
2018-12-05T23:26:35.700Z,100521.75
2018-12-05T23:29:02.705Z,100515.39
2018-12-05T23:31:29.371Z,100505.69
2018-12-05T23:33:55.996Z,100500.98
2018-12-05T23:36:22.883Z,100497.38
2018-12-05T23:38:49.546Z,100494.41
2018-12-05T23:41:16.240Z,100494.70
2018-12-05T23:43:43.123Z,100497.56
2018-12-05T23:46:09.804Z,100494.16
2018-12-05T23:48:36.491Z,100479.61
2018-12-05T23:51:03.223Z,100479.09
2018-12-05T23:53:29.902Z,100467.27
2018-12-05T23:55:56.542Z,100465.48
2018-12-05T23:58:23.791Z,100468.10
